createdAt,value
2022-09-22T00:00:16.577Z,3.78
2022-09-22T00:01:17.044Z,3.77
2022-09-22T00:02:16.607Z,3.81
2022-09-22T00:03:17.147Z,3.79
2022-09-22T00:04:16.591Z,3.77
2022-09-22T00:05:17.072Z,3.75
2022-09-22T00:06:16.551Z,3.75
2022-09-22T00:07:17.014Z,3.77
2022-09-22T00:08:16.460Z,3.77
2022-09-22T00:09:16.943Z,3.82
2022-09-22T00:10:16.414Z,3.81
2022-09-22T00:11:16.916Z,3.82
2022-09-22T00:12:17.274Z,3.81
2022-09-22T00:13:16.686Z,3.79
2022-09-22T00:14:17.119Z,3.79
2022-09-22T00:15:16.576Z,3.78
2022-09-22T00:16:17.065Z,3.78
2022-09-22T00:17:16.563Z,3.77
2022-09-22T00:18:17.008Z,3.77
2022-09-22T00:19:16.494Z,3.71
2022-09-22T00:20:16.972Z,3.68
2022-09-22T00:21:16.434Z,3.65
2022-09-22T00:22:17.287Z,3.65
2022-09-22T00:23:16.759Z,3.57
2022-09-22T00:24:17.233Z,3.51
2022-09-22T00:25:16.685Z,3.53
2022-09-22T00:26:17.175Z,3.46
2022-09-22T00:27:16.589Z,3.44
2022-09-22T00:28:17.013Z,3.43
2022-09-22T00:29:16.447Z,3.39
2022-09-22T00:30:16.887Z,3.41
2022-09-22T00:31:16.354Z,3.40
2022-09-22T00:32:17.066Z,3.39
2022-09-22T00:33:16.532Z,3.36
2022-09-22T00:34:16.994Z,3.39
2022-09-22T00:35:16.460Z,3.36
2022-09-22T00:36:16.936Z,3.37
2022-09-22T00:37:16.414Z,3.36
2022-09-22T00:38:16.874Z,3.36
2022-09-22T00:39:16.322Z,3.36
2022-09-22T00:40:16.766Z,3.31
2022-09-22T00:41:16.288Z,3.28
2022-09-22T00:42:17.159Z,3.28
2022-09-22T00:43:16.606Z,3.24
2022-09-22T00:44:17.042Z,3.24
2022-09-22T00:45:16.490Z,3.27
2022-09-22T00:46:16.945Z,3.24
2022-09-22T00:47:16.515Z,3.26
2022-09-22T00:48:16.998Z,3.24
2022-09-22T00:49:16.447Z,3.22
2022-09-22T00:50:16.893Z,3.24
2022-09-22T00:51:16.344Z,3.20
2022-09-22T00:52:16.879Z,3.17
2022-09-22T00:53:16.342Z,3.17
2022-09-22T00:54:16.839Z,3.19
2022-09-22T00:55:17.285Z,3.19
2022-09-22T00:56:16.735Z,3.16
2022-09-22T00:57:17.205Z,3.14
2022-09-22T00:58:16.622Z,3.19
2022-09-22T00:59:17.076Z,3.13
2022-09-22T01:00:16.511Z,3.17
2022-09-22T01:01:17.234Z,3.22
2022-09-22T01:02:16.531Z,3.22
2022-09-22T01:03:17.121Z,3.20
2022-09-22T01:04:16.566Z,3.20
2022-09-22T01:05:17.025Z,3.19
2022-09-22T01:06:16.500Z,3.22
2022-09-22T01:07:16.953Z,3.24
2022-09-22T01:08:16.403Z,3.24
2022-09-22T01:09:16.859Z,3.27
2022-09-22T01:10:16.293Z,3.24
2022-09-22T01:11:16.723Z,3.19
2022-09-22T01:12:17.255Z,3.14
2022-09-22T01:13:16.684Z,3.14
2022-09-22T01:14:17.118Z,3.13
2022-09-22T01:15:16.554Z,3.13
2022-09-22T01:16:17.126Z,3.12
2022-09-22T01:17:16.779Z,3.06
2022-09-22T01:18:17.262Z,3.06
2022-09-22T01:19:16.729Z,3.02
2022-09-22T01:20:17.221Z,3.02
2022-09-22T01:21:16.703Z,3.00
2022-09-22T01:22:17.247Z,3.03
2022-09-22T01:23:16.714Z,2.99
2022-09-22T01:24:17.177Z,2.96
2022-09-22T01:25:16.598Z,2.96
2022-09-22T01:26:17.067Z,2.95
2022-09-22T01:27:16.516Z,2.93
2022-09-22T01:28:16.952Z,2.92
2022-09-22T01:29:16.388Z,2.95
2022-09-22T01:30:16.835Z,2.96
2022-09-22T01:31:16.343Z,2.91
2022-09-22T01:32:16.915Z,2.88
2022-09-22T01:33:16.355Z,2.85
2022-09-22T01:34:16.796Z,2.91
2022-09-22T01:35:17.545Z,2.82
2022-09-22T01:36:17.012Z,2.82
2022-09-22T01:37:16.486Z,2.82
2022-09-22T01:38:16.907Z,2.81
2022-09-22T01:39:16.343Z,2.85
2022-09-22T01:40:16.846Z,2.82
2022-09-22T01:41:16.359Z,2.85
2022-09-22T01:42:16.803Z,2.82
2022-09-22T01:43:17.236Z,2.81
2022-09-22T01:44:16.677Z,2.81
2022-09-22T01:45:17.128Z,2.82
2022-09-22T01:46:16.651Z,2.76
2022-09-22T01:47:17.179Z,2.78
2022-09-22T01:48:16.639Z,2.76
2022-09-22T01:49:17.110Z,2.76
2022-09-22T01:50:16.575Z,2.69
2022-09-22T01:51:17.052Z,2.71
2022-09-22T01:52:16.527Z,2.68
2022-09-22T01:53:16.959Z,2.63
2022-09-22T01:54:16.374Z,2.63
2022-09-22T01:55:16.794Z,2.54
2022-09-22T01:56:17.230Z,2.53
2022-09-22T01:57:16.662Z,2.55
2022-09-22T01:58:17.100Z,2.57
2022-09-22T01:59:16.540Z,2.54
2022-09-22T02:00:17.035Z,2.54
2022-09-22T02:01:16.590Z,2.54
2022-09-22T02:02:16.888Z,2.54
2022-09-22T02:03:16.545Z,2.50
2022-09-22T02:04:17.036Z,2.45
2022-09-22T02:05:16.510Z,2.48
2022-09-22T02:06:16.969Z,2.41
2022-09-22T02:07:16.407Z,2.30
2022-09-22T02:08:16.831Z,2.37
2022-09-22T02:09:17.276Z,2.32
2022-09-22T02:10:16.697Z,2.29
2022-09-22T02:11:17.137Z,2.30
2022-09-22T02:12:16.995Z,2.36
2022-09-22T02:13:16.443Z,2.29
2022-09-22T02:14:16.921Z,2.27
2022-09-22T02:15:16.413Z,2.27
2022-09-22T02:16:16.881Z,2.26
2022-09-22T02:17:16.421Z,2.21
2022-09-22T02:18:16.923Z,2.19
2022-09-22T02:19:16.412Z,2.20
2022-09-22T02:20:16.922Z,2.10
2022-09-22T02:21:16.399Z,2.06
2022-09-22T02:22:16.776Z,2.07
2022-09-22T02:23:17.234Z,2.06
2022-09-22T02:24:16.655Z,2.07
2022-09-22T02:25:17.078Z,2.07
2022-09-22T02:26:16.511Z,2.09
2022-09-22T02:27:16.940Z,2.09
2022-09-22T02:28:16.353Z,2.10
2022-09-22T02:29:16.788Z,2.13
2022-09-22T02:30:17.281Z,2.16
2022-09-22T02:31:20.572Z,2.13
2022-09-22T02:32:16.969Z,2.09
2022-09-22T02:33:16.434Z,2.10
2022-09-22T02:34:16.892Z,2.13
2022-09-22T02:35:16.368Z,2.12
2022-09-22T02:36:16.835Z,2.12
2022-09-22T02:37:17.263Z,2.07
2022-09-22T02:38:16.683Z,2.12
2022-09-22T02:39:17.095Z,2.06
2022-09-22T02:40:16.629Z,2.10
2022-09-22T02:41:16.416Z,2.09
2022-09-22T02:42:16.466Z,2.05
2022-09-22T02:43:16.892Z,2.03
2022-09-22T02:44:16.339Z,2.05
2022-09-22T02:45:16.800Z,2.03
2022-09-22T02:46:17.307Z,1.98
2022-09-22T02:47:16.872Z,1.99
2022-09-22T02:48:16.308Z,2.03
2022-09-22T02:49:16.588Z,2.00
2022-09-22T02:50:17.058Z,2.06
2022-09-22T02:51:16.476Z,2.00
2022-09-22T02:52:16.454Z,1.98
2022-09-22T02:53:16.873Z,1.99
2022-09-22T02:54:16.302Z,2.03
2022-09-22T02:55:16.750Z,2.00
2022-09-22T02:56:17.171Z,1.99
2022-09-22T02:57:16.599Z,2.00
2022-09-22T02:58:17.050Z,2.05
2022-09-22T02:59:16.542Z,2.05
2022-09-22T03:00:17.024Z,2.06
2022-09-22T03:01:16.513Z,2.02
2022-09-22T03:02:16.999Z,1.99
2022-09-22T03:03:16.445Z,2.05
2022-09-22T03:04:16.898Z,2.05
2022-09-22T03:05:16.394Z,2.05
2022-09-22T03:06:17.127Z,2.05
2022-09-22T03:07:16.558Z,2.10
2022-09-22T03:08:16.990Z,2.09
2022-09-22T03:09:16.417Z,2.07
2022-09-22T03:10:16.839Z,2.05
2022-09-22T03:11:17.255Z,2.00
2022-09-22T03:12:17.263Z,2.02
2022-09-22T03:13:17.485Z,2.02
2022-09-22T03:14:17.215Z,2.03
2022-09-22T03:15:16.724Z,2.00
2022-09-22T03:16:17.276Z,1.93
2022-09-22T03:17:16.875Z,1.92
2022-09-22T03:18:16.351Z,1.93
2022-09-22T03:19:16.833Z,1.88
2022-09-22T03:20:16.297Z,1.85
2022-09-22T03:21:16.750Z,1.85
2022-09-22T03:22:17.156Z,1.83
2022-09-22T03:23:16.574Z,1.85
2022-09-22T03:24:17.010Z,1.83
2022-09-22T03:25:16.446Z,1.85
2022-09-22T03:26:16.901Z,1.78
2022-09-22T03:27:16.357Z,1.68
2022-09-22T03:28:16.863Z,1.72
2022-09-22T03:29:16.310Z,1.71
2022-09-22T03:30:16.788Z,1.72
2022-09-22T03:31:17.307Z,1.68
2022-09-22T03:32:16.675Z,1.65
2022-09-22T03:33:17.127Z,1.64
2022-09-22T03:34:16.613Z,1.65
2022-09-22T03:35:17.040Z,1.64
2022-09-22T03:36:16.484Z,1.57
2022-09-22T03:37:16.939Z,1.57
2022-09-22T03:38:16.351Z,1.58
2022-09-22T03:39:16.810Z,1.55
2022-09-22T03:40:17.329Z,1.40
2022-09-22T03:41:16.827Z,1.33
2022-09-22T03:42:16.953Z,1.30
2022-09-22T03:43:16.734Z,1.34
2022-09-22T03:44:16.315Z,1.33
2022-09-22T03:45:16.774Z,1.34
2022-09-22T03:46:17.293Z,1.36
2022-09-22T03:47:16.900Z,1.34
2022-09-22T03:48:16.359Z,1.29
2022-09-22T03:49:16.821Z,1.27
2022-09-22T03:50:17.265Z,1.34
2022-09-22T03:51:16.691Z,1.33
2022-09-22T03:52:17.136Z,1.34
2022-09-22T03:53:16.559Z,1.34
2022-09-22T03:54:17.004Z,1.34
2022-09-22T03:55:16.458Z,1.34
2022-09-22T03:56:16.894Z,1.36
2022-09-22T03:57:16.355Z,1.31
2022-09-22T03:58:16.816Z,1.33
2022-09-22T03:59:17.252Z,1.40
2022-09-22T04:00:16.716Z,1.43
2022-09-22T04:01:17.234Z,1.46
2022-09-22T04:02:16.847Z,1.44
2022-09-22T04:03:16.444Z,1.44
2022-09-22T04:04:16.866Z,1.40
2022-09-22T04:05:16.303Z,1.40
2022-09-22T04:06:16.732Z,1.47
2022-09-22T04:07:17.164Z,1.48
2022-09-22T04:08:16.587Z,1.48
2022-09-22T04:09:17.004Z,1.40
2022-09-22T04:10:16.840Z,1.41
2022-09-22T04:11:17.282Z,1.40
2022-09-22T04:12:16.967Z,1.41
2022-09-22T04:13:16.429Z,1.43
2022-09-22T04:14:16.917Z,1.46
2022-09-22T04:15:16.394Z,1.47
2022-09-22T04:16:16.878Z,1.44
2022-09-22T04:17:16.428Z,1.41
2022-09-22T04:18:16.895Z,1.44
2022-09-22T04:19:16.349Z,1.46
2022-09-22T04:20:16.779Z,1.44
2022-09-22T04:21:17.220Z,1.47
2022-09-22T04:22:17.268Z,1.44
2022-09-22T04:23:16.703Z,1.46
2022-09-22T04:24:17.133Z,1.48
2022-09-22T04:25:16.559Z,1.51
2022-09-22T04:26:16.995Z,1.54
2022-09-22T04:27:20.793Z,1.55
2022-09-22T04:28:16.845Z,1.57
2022-09-22T04:29:16.312Z,1.58
2022-09-22T04:30:16.816Z,1.58
2022-09-22T04:31:17.309Z,1.60
2022-09-22T04:32:16.873Z,1.65
2022-09-22T04:33:16.325Z,1.67
2022-09-22T04:34:16.765Z,1.65
2022-09-22T04:35:17.196Z,1.64
2022-09-22T04:36:16.616Z,1.67
2022-09-22T04:37:17.030Z,1.64
2022-09-22T04:38:16.455Z,1.64
2022-09-22T04:39:20.335Z,1.67
2022-09-22T04:40:17.286Z,1.65
2022-09-22T04:41:16.899Z,1.64
2022-09-22T04:42:17.213Z,1.68
2022-09-22T04:43:16.710Z,1.69
2022-09-22T04:44:17.203Z,1.69
2022-09-22T04:45:16.679Z,1.72
2022-09-22T04:46:17.209Z,1.72
2022-09-22T04:47:16.877Z,1.79
2022-09-22T04:48:16.311Z,1.79
2022-09-22T04:49:16.775Z,1.74
2022-09-22T04:50:17.215Z,1.78
2022-09-22T04:51:16.760Z,1.82
2022-09-22T04:52:16.346Z,1.79
2022-09-22T04:53:16.847Z,1.81
2022-09-22T04:54:16.324Z,1.85
2022-09-22T04:55:16.797Z,1.89
2022-09-22T04:56:17.277Z,1.93
2022-09-22T04:57:20.274Z,1.92
2022-09-22T04:58:17.103Z,1.95
2022-09-22T04:59:16.604Z,1.89
2022-09-22T05:00:17.066Z,1.89
2022-09-22T05:01:16.552Z,1.88
2022-09-22T05:02:17.055Z,1.92
2022-09-22T05:03:20.001Z,1.88
2022-09-22T05:04:16.765Z,1.93
2022-09-22T05:05:17.227Z,1.95
2022-09-22T05:06:16.637Z,1.99
2022-09-22T05:07:17.074Z,1.95
2022-09-22T05:08:16.544Z,1.98
2022-09-22T05:09:16.981Z,2.03
2022-09-22T05:10:16.476Z,2.09
2022-09-22T05:11:17.205Z,2.12
2022-09-22T05:12:16.415Z,2.12
2022-09-22T05:13:16.892Z,2.09
2022-09-22T05:14:16.327Z,2.06
2022-09-22T05:15:16.803Z,2.07
2022-09-22T05:16:17.277Z,2.09
2022-09-22T05:17:16.799Z,2.09
2022-09-22T05:18:17.241Z,2.16
2022-09-22T05:19:16.655Z,2.10
2022-09-22T05:20:17.110Z,2.13
2022-09-22T05:21:16.526Z,2.16
2022-09-22T05:22:16.608Z,2.14
2022-09-22T05:23:17.027Z,2.16
2022-09-22T05:24:16.472Z,2.14
2022-09-22T05:25:16.927Z,2.17
2022-09-22T05:26:16.351Z,2.16
2022-09-22T05:27:16.803Z,2.27
2022-09-22T05:28:17.251Z,2.20
2022-09-22T05:29:16.707Z,2.23
2022-09-22T05:30:17.198Z,2.23
2022-09-22T05:31:16.759Z,2.23
2022-09-22T05:32:17.075Z,2.27
2022-09-22T05:33:16.542Z,2.23
2022-09-22T05:34:17.005Z,2.17
2022-09-22T05:35:16.422Z,2.20
2022-09-22T05:36:16.899Z,2.24
2022-09-22T05:37:16.319Z,2.21
2022-09-22T05:38:16.733Z,2.30
2022-09-22T05:39:17.174Z,2.36
2022-09-22T05:40:16.663Z,2.33
2022-09-22T05:41:17.253Z,2.34
2022-09-22T05:42:16.773Z,2.33
2022-09-22T05:43:17.240Z,2.38
2022-09-22T05:44:16.682Z,2.38
2022-09-22T05:45:17.167Z,2.44
2022-09-22T05:46:16.668Z,2.45
2022-09-22T05:47:17.258Z,2.47
2022-09-22T05:48:16.675Z,2.53
2022-09-22T05:49:17.123Z,2.55
2022-09-22T05:50:16.582Z,2.51
2022-09-22T05:51:16.999Z,2.55
2022-09-22T05:52:16.606Z,2.54
2022-09-22T05:53:17.032Z,2.57
2022-09-22T05:54:19.008Z,2.51
2022-09-22T05:55:16.630Z,2.55
2022-09-22T05:56:17.067Z,2.50
2022-09-22T05:57:16.536Z,2.53
2022-09-22T05:58:17.006Z,2.60
2022-09-22T05:59:16.460Z,2.60
2022-09-22T06:00:16.944Z,2.55
2022-09-22T06:01:16.449Z,2.51
2022-09-22T06:02:25.446Z,2.50
2022-09-22T06:03:17.114Z,2.51
2022-09-22T06:04:16.548Z,2.50
2022-09-22T06:05:19.186Z,2.41
2022-09-22T06:06:17.022Z,2.41
2022-09-22T06:07:16.475Z,2.44
2022-09-22T06:08:16.923Z,2.45
2022-09-22T06:09:16.396Z,2.45
2022-09-22T06:10:16.847Z,2.41
2022-09-22T06:11:16.331Z,2.34
2022-09-22T06:12:16.719Z,2.40
2022-09-22T06:13:17.154Z,2.41
2022-09-22T06:14:16.610Z,2.44
2022-09-22T06:15:17.060Z,2.44
2022-09-22T06:16:16.503Z,2.43
2022-09-22T06:17:17.026Z,2.38
2022-09-22T06:18:19.498Z,2.41
2022-09-22T06:19:16.985Z,2.41
2022-09-22T06:20:16.455Z,2.41
2022-09-22T06:21:16.886Z,2.44
2022-09-22T06:22:16.690Z,2.40
2022-09-22T06:23:17.150Z,2.45
2022-09-22T06:24:16.645Z,2.45
2022-09-22T06:25:17.161Z,2.45
2022-09-22T06:26:16.619Z,2.41
2022-09-22T06:27:17.096Z,2.51
2022-09-22T06:28:16.568Z,2.48
2022-09-22T06:29:17.127Z,2.47
2022-09-22T06:30:16.640Z,2.47
2022-09-22T06:31:17.115Z,2.55
2022-09-22T06:32:16.630Z,2.57
2022-09-22T06:33:17.077Z,2.67
2022-09-22T06:34:16.527Z,2.68
2022-09-22T06:35:16.946Z,2.74
2022-09-22T06:36:16.361Z,2.76
2022-09-22T06:37:16.824Z,2.76
2022-09-22T06:38:17.287Z,2.78
2022-09-22T06:39:16.751Z,2.82
2022-09-22T06:40:17.551Z,2.81
2022-09-22T06:41:16.350Z,2.84
2022-09-22T06:42:16.683Z,2.86
2022-09-22T06:43:17.148Z,2.91
2022-09-22T06:44:16.589Z,2.98
2022-09-22T06:45:17.014Z,3.02
2022-09-22T06:46:16.473Z,3.09
2022-09-22T06:47:17.008Z,3.16
2022-09-22T06:48:16.428Z,3.19
2022-09-22T06:49:16.883Z,3.27
2022-09-22T06:50:16.311Z,3.33
2022-09-22T06:51:17.017Z,3.39
2022-09-22T06:52:16.615Z,3.47
2022-09-22T06:53:17.076Z,3.55
2022-09-22T06:54:16.521Z,3.61
2022-09-22T06:55:16.971Z,3.61
2022-09-22T06:56:16.419Z,3.64
2022-09-22T06:57:16.907Z,3.68
2022-09-22T06:58:16.384Z,3.75
2022-09-22T06:59:16.830Z,3.78
2022-09-22T07:00:17.286Z,3.86
2022-09-22T07:01:16.787Z,3.92
2022-09-22T07:02:16.965Z,4.00
2022-09-22T07:03:16.623Z,4.08
2022-09-22T07:04:17.052Z,4.14
2022-09-22T07:05:16.476Z,4.14
2022-09-22T07:06:20.007Z,4.17
2022-09-22T07:07:16.997Z,4.28
2022-09-22T07:08:16.463Z,4.31
2022-09-22T07:09:16.922Z,4.36
2022-09-22T07:10:16.394Z,4.37
2022-09-22T07:11:16.838Z,4.55
2022-09-22T07:12:17.217Z,4.60
2022-09-22T07:13:16.669Z,4.64
2022-09-22T07:14:17.123Z,4.71
2022-09-22T07:15:16.563Z,4.71
2022-09-22T07:16:17.069Z,4.74
2022-09-22T07:17:16.642Z,4.81
2022-09-22T07:18:17.075Z,4.89
2022-09-22T07:19:16.504Z,5.00
2022-09-22T07:20:16.944Z,5.06
2022-09-22T07:21:16.377Z,5.10
2022-09-22T07:22:16.465Z,5.09
2022-09-22T07:23:16.928Z,5.17
2022-09-22T07:24:16.376Z,5.28
2022-09-22T07:25:16.821Z,5.31
2022-09-22T07:26:17.305Z,5.34
2022-09-22T07:27:16.794Z,5.40
2022-09-22T07:28:17.219Z,5.44
2022-09-22T07:29:16.694Z,5.52
2022-09-22T07:30:17.176Z,5.57
2022-09-22T07:31:16.638Z,5.61
2022-09-22T07:32:17.124Z,5.68
2022-09-22T07:33:16.545Z,5.65
2022-09-22T07:34:17.003Z,5.67
2022-09-22T07:35:16.423Z,5.71
2022-09-22T07:36:16.864Z,5.85
2022-09-22T07:37:16.314Z,5.89
2022-09-22T07:38:16.762Z,5.95
2022-09-22T07:39:16.663Z,6.03
2022-09-22T07:40:17.197Z,6.02
2022-09-22T07:41:16.784Z,6.08
2022-09-22T07:42:16.312Z,6.09
2022-09-22T07:43:16.758Z,6.08
2022-09-22T07:44:17.188Z,6.14
2022-09-22T07:45:16.613Z,6.24
2022-09-22T07:46:17.081Z,6.29
2022-09-22T07:47:16.620Z,6.30
2022-09-22T07:48:17.076Z,6.40
2022-09-22T07:49:16.492Z,6.47
2022-09-22T07:50:16.955Z,6.59
2022-09-22T07:51:16.849Z,6.58
2022-09-22T07:52:17.024Z,6.61
2022-09-22T07:53:16.500Z,6.65
2022-09-22T07:54:16.967Z,6.75
2022-09-22T07:55:16.443Z,6.79
2022-09-22T07:56:16.882Z,6.76
2022-09-22T07:57:16.368Z,6.84
2022-09-22T07:58:17.452Z,6.89
2022-09-22T07:59:16.959Z,6.94
2022-09-22T08:00:16.383Z,7.03
2022-09-22T08:01:16.931Z,7.19
2022-09-22T08:02:16.530Z,7.31
2022-09-22T08:03:17.062Z,7.34
2022-09-22T08:04:16.490Z,7.35
2022-09-22T08:05:17.082Z,7.43
2022-09-22T08:06:16.553Z,7.38
2022-09-22T08:07:16.881Z,7.40
2022-09-22T08:08:16.340Z,7.34
2022-09-22T08:09:16.792Z,7.43
2022-09-22T08:10:17.276Z,7.50
2022-09-22T08:11:16.733Z,7.53
2022-09-22T08:12:16.718Z,7.75
2022-09-22T08:13:17.182Z,7.81
2022-09-22T08:14:16.608Z,7.77
2022-09-22T08:15:17.036Z,7.82
2022-09-22T08:16:16.533Z,7.96
2022-09-22T08:17:17.215Z,7.96
2022-09-22T08:18:16.684Z,7.98
2022-09-22T08:19:17.098Z,7.98
2022-09-22T08:20:16.563Z,7.95
2022-09-22T08:21:17.205Z,8.17
2022-09-22T08:22:16.475Z,8.36
2022-09-22T08:23:16.931Z,8.26
2022-09-22T08:24:16.413Z,8.33
2022-09-22T08:25:16.862Z,8.31
2022-09-22T08:26:16.361Z,8.31
2022-09-22T08:27:16.823Z,8.30
2022-09-22T08:28:17.252Z,8.24
2022-09-22T08:29:16.672Z,8.27
2022-09-22T08:30:17.146Z,8.29
2022-09-22T08:31:16.687Z,8.24
2022-09-22T08:32:16.796Z,8.27
2022-09-22T08:33:17.247Z,8.34
2022-09-22T08:34:16.925Z,8.36
2022-09-22T08:35:16.448Z,8.65
2022-09-22T08:36:16.897Z,9.02
2022-09-22T08:37:16.380Z,9.05
2022-09-22T08:38:16.832Z,9.05
2022-09-22T08:39:16.340Z,9.23
2022-09-22T08:40:16.849Z,9.22
2022-09-22T08:41:16.540Z,9.24
2022-09-22T08:42:16.639Z,9.40
2022-09-22T08:43:17.084Z,9.24
2022-09-22T08:44:16.501Z,9.24
2022-09-22T08:45:16.935Z,9.50
2022-09-22T08:46:16.401Z,9.68
2022-09-22T08:47:16.914Z,9.58
2022-09-22T08:48:16.344Z,9.48
2022-09-22T08:49:16.768Z,9.45
2022-09-22T08:50:17.251Z,9.45
2022-09-22T08:51:16.726Z,9.64
2022-09-22T08:52:16.847Z,9.64
2022-09-22T08:53:16.316Z,9.75
2022-09-22T08:54:16.771Z,9.71
2022-09-22T08:55:17.223Z,9.76
2022-09-22T08:56:16.684Z,9.92
2022-09-22T08:57:17.123Z,9.89
2022-09-22T08:58:16.554Z,10.05
2022-09-22T08:59:16.985Z,9.93
2022-09-22T09:00:16.443Z,9.95
2022-09-22T09:01:17.046Z,10.01
2022-09-22T09:02:17.229Z,10.01
2022-09-22T09:03:16.741Z,10.14
2022-09-22T09:04:16.326Z,10.26
2022-09-22T09:05:16.787Z,10.34
2022-09-22T09:06:17.275Z,10.39
2022-09-22T09:07:16.712Z,10.47
2022-09-22T09:08:17.172Z,10.61
2022-09-22T09:09:16.663Z,10.54
2022-09-22T09:10:17.221Z,10.61
2022-09-22T09:11:16.834Z,10.56
2022-09-22T09:12:16.297Z,10.52
2022-09-22T09:13:16.710Z,10.57
2022-09-22T09:14:17.154Z,10.75
2022-09-22T09:15:16.592Z,10.85
2022-09-22T09:16:17.061Z,10.84
2022-09-22T09:17:16.599Z,10.87
2022-09-22T09:18:17.089Z,10.75
2022-09-22T09:19:16.562Z,10.72
2022-09-22T09:20:17.069Z,10.67
2022-09-22T09:21:16.708Z,11.07
2022-09-22T09:22:16.754Z,11.12
2022-09-22T09:23:17.263Z,11.26
2022-09-22T09:25:25.355Z,11.26
2022-09-22T09:26:16.443Z,11.25
2022-09-22T09:27:16.868Z,11.30
2022-09-22T09:28:16.322Z,11.26
2022-09-22T09:29:16.739Z,11.37
2022-09-22T09:30:17.209Z,11.37
2022-09-22T09:31:16.855Z,11.64
2022-09-22T09:32:16.784Z,11.64
2022-09-22T09:33:17.243Z,11.75
2022-09-22T09:34:16.732Z,11.71
2022-09-22T09:35:17.196Z,11.77
2022-09-22T09:37:17.178Z,11.75
2022-09-22T09:38:16.632Z,11.75
2022-09-22T09:39:17.067Z,11.81
2022-09-22T09:40:16.652Z,11.82
2022-09-22T09:41:16.381Z,11.84
2022-09-22T09:42:16.699Z,11.84
2022-09-22T09:43:17.115Z,11.86
2022-09-22T09:44:19.632Z,11.89
2022-09-22T09:45:16.988Z,11.91
2022-09-22T09:46:16.471Z,11.99
2022-09-22T09:47:16.943Z,12.09
2022-09-22T09:48:16.380Z,12.09
2022-09-22T09:49:16.823Z,12.09
2022-09-22T09:50:17.309Z,12.49
2022-09-22T09:51:16.796Z,12.35
2022-09-22T09:52:16.959Z,12.40
2022-09-22T09:53:16.408Z,12.30
2022-09-22T09:54:17.562Z,12.37
2022-09-22T09:55:16.293Z,12.46
2022-09-22T09:56:16.707Z,12.51
2022-09-22T09:57:17.169Z,12.54
2022-09-22T09:58:16.595Z,12.54
2022-09-22T09:59:17.017Z,12.50
2022-09-22T10:00:16.447Z,12.74
2022-09-22T10:01:16.961Z,12.66
2022-09-22T10:02:16.432Z,12.71
2022-09-22T10:03:16.902Z,12.75
2022-09-22T10:04:16.469Z,12.75
2022-09-22T10:05:16.942Z,12.70
2022-09-22T10:06:16.425Z,12.75
2022-09-22T10:07:16.926Z,12.79
2022-09-22T10:08:16.371Z,12.91
2022-09-22T10:09:16.887Z,13.01
2022-09-22T10:10:16.327Z,13.01
2022-09-22T10:11:16.796Z,13.05
2022-09-22T10:12:16.626Z,13.09
2022-09-22T10:13:18.036Z,13.02
2022-09-22T10:14:16.707Z,13.14
2022-09-22T10:15:17.181Z,13.15
2022-09-22T10:16:16.671Z,13.29
2022-09-22T10:17:17.256Z,13.36
2022-09-22T10:18:16.721Z,13.42
2022-09-22T10:19:17.170Z,13.74
2022-09-22T10:20:16.656Z,13.76
2022-09-22T10:21:17.099Z,13.73
2022-09-22T10:22:16.478Z,13.78
2022-09-22T10:23:16.949Z,13.73
2022-09-22T10:24:16.414Z,13.76
2022-09-22T10:25:16.872Z,13.73
2022-09-22T10:26:16.291Z,13.74
2022-09-22T10:27:16.731Z,13.80
2022-09-22T10:28:16.420Z,13.82
2022-09-22T10:29:16.851Z,13.82
2022-09-22T10:30:16.332Z,13.84
2022-09-22T10:31:16.830Z,13.92
2022-09-22T10:32:16.377Z,13.94
2022-09-22T10:33:16.860Z,13.91
2022-09-22T10:34:16.338Z,13.78
2022-09-22T10:35:16.858Z,13.68
2022-09-22T10:36:16.335Z,13.71
2022-09-22T10:37:16.793Z,13.81
2022-09-22T10:38:17.248Z,13.77
2022-09-22T10:39:16.699Z,13.84
2022-09-22T10:40:17.202Z,14.00
2022-09-22T10:41:16.710Z,14.01
2022-09-22T10:42:16.568Z,14.00
2022-09-22T10:43:17.032Z,14.00
2022-09-22T10:44:38.362Z,14.02
2022-09-22T10:45:16.572Z,14.13
2022-09-22T10:46:17.123Z,14.09
2022-09-22T10:47:16.761Z,14.16
2022-09-22T10:49:16.684Z,14.25
2022-09-22T10:50:17.197Z,14.37
2022-09-22T10:51:16.665Z,14.37
2022-09-22T10:52:16.328Z,14.36
2022-09-22T10:53:16.781Z,14.40
2022-09-22T10:54:17.251Z,14.68
2022-09-22T10:55:16.700Z,14.67
2022-09-22T10:56:17.140Z,14.63
2022-09-22T10:57:16.604Z,14.67
2022-09-22T10:58:17.016Z,14.66
2022-09-22T10:59:16.457Z,14.60
2022-09-22T11:00:16.937Z,14.64
2022-09-22T11:01:16.439Z,14.55
2022-09-22T11:02:16.299Z,14.55
2022-09-22T11:03:16.786Z,14.64
2022-09-22T11:04:17.305Z,14.46
2022-09-22T11:05:16.885Z,14.39
2022-09-22T11:06:16.361Z,14.37
2022-09-22T11:07:16.799Z,14.37
2022-09-22T11:08:17.253Z,14.36
2022-09-22T11:09:16.691Z,14.43
2022-09-22T11:10:17.145Z,14.53
2022-09-22T11:11:16.610Z,14.40
2022-09-22T11:12:16.798Z,14.39
2022-09-22T11:13:17.211Z,14.36
2022-09-22T11:14:16.655Z,14.30
2022-09-22T11:15:17.103Z,14.32
2022-09-22T11:16:16.556Z,14.29
2022-09-22T11:17:17.006Z,14.25
2022-09-22T11:18:16.467Z,14.22
2022-09-22T11:19:16.933Z,14.23
2022-09-22T11:20:16.433Z,14.08
2022-09-22T11:21:16.916Z,14.12
2022-09-22T11:22:17.185Z,14.05
2022-09-22T11:23:16.632Z,14.05
2022-09-22T11:24:17.043Z,14.09
2022-09-22T11:25:16.479Z,14.12
2022-09-22T11:26:16.940Z,14.11
2022-09-22T11:27:16.359Z,14.12
2022-09-22T11:28:16.799Z,14.02
2022-09-22T11:29:17.231Z,14.01
2022-09-22T11:30:16.676Z,14.00
2022-09-22T11:31:16.382Z,13.98
2022-09-22T11:32:17.018Z,13.94
2022-09-22T11:33:16.487Z,13.98
2022-09-22T11:34:16.937Z,14.05
2022-09-22T11:35:16.392Z,14.12
2022-09-22T11:36:16.863Z,14.18
2022-09-22T11:37:16.361Z,14.18
2022-09-22T11:38:16.810Z,14.18
2022-09-22T11:39:17.246Z,14.23
2022-09-22T11:40:16.746Z,14.25
2022-09-22T11:41:17.243Z,14.09
2022-09-22T11:42:16.628Z,14.02
2022-09-22T11:43:17.087Z,14.07
2022-09-22T11:44:16.506Z,14.07
2022-09-22T11:45:16.999Z,14.07
2022-09-22T11:46:16.533Z,14.11
2022-09-22T11:47:17.131Z,14.15
2022-09-22T11:48:16.592Z,14.11
2022-09-22T11:49:17.079Z,14.22
2022-09-22T11:50:16.557Z,14.44
2022-09-22T11:51:17.044Z,14.50
2022-09-22T11:52:17.522Z,14.56
2022-09-22T11:53:17.137Z,14.47
2022-09-22T11:54:16.583Z,14.64
2022-09-22T11:55:17.008Z,14.77
2022-09-22T11:56:16.481Z,15.08
2022-09-22T11:57:16.909Z,15.08
2022-09-22T11:58:16.333Z,14.99
2022-09-22T11:59:16.750Z,15.11
2022-09-22T12:00:17.222Z,14.99
2022-09-22T12:01:16.746Z,15.06
2022-09-22T12:02:16.934Z,15.05
2022-09-22T12:03:16.704Z,15.19
2022-09-22T12:04:16.485Z,15.42
2022-09-22T12:05:16.964Z,15.49
2022-09-22T12:06:16.424Z,15.45
2022-09-22T12:07:16.896Z,15.62
2022-09-22T12:08:16.375Z,15.52
2022-09-22T12:09:16.817Z,15.47
2022-09-22T12:10:17.291Z,15.56
2022-09-22T12:11:16.716Z,15.29
2022-09-22T12:12:17.195Z,15.14
2022-09-22T12:13:16.619Z,15.29
2022-09-22T12:14:17.034Z,15.45
2022-09-22T12:15:16.492Z,15.50
2022-09-22T12:16:16.950Z,15.52
2022-09-22T12:17:17.746Z,15.50
2022-09-22T12:18:16.923Z,15.46
2022-09-22T12:19:16.373Z,15.50
2022-09-22T12:20:16.836Z,15.59
2022-09-22T12:21:16.292Z,15.59
2022-09-22T12:22:16.844Z,15.46
2022-09-22T12:23:17.274Z,15.49
2022-09-22T12:24:16.724Z,15.47
2022-09-22T12:25:26.006Z,15.42
2022-09-22T12:26:16.671Z,15.31
2022-09-22T12:27:17.111Z,15.19
2022-09-22T12:28:16.580Z,15.15
2022-09-22T12:29:16.993Z,15.12
2022-09-22T12:30:16.428Z,15.11
2022-09-22T12:31:16.942Z,15.22
2022-09-22T12:32:17.271Z,15.23
2022-09-22T12:33:16.727Z,15.35
2022-09-22T12:34:17.197Z,15.41
2022-09-22T12:35:16.663Z,15.26
2022-09-22T12:36:17.152Z,15.19
2022-09-22T12:37:16.594Z,15.22
2022-09-22T12:38:17.013Z,15.22
2022-09-22T12:39:16.428Z,15.19
2022-09-22T12:40:16.900Z,15.21
2022-09-22T12:41:16.536Z,15.12
2022-09-22T12:42:17.246Z,15.09
2022-09-22T12:43:16.675Z,14.95
2022-09-22T12:44:17.112Z,14.94
2022-09-22T12:45:16.592Z,14.90
2022-09-22T12:46:17.055Z,14.85
2022-09-22T12:47:16.585Z,14.83
2022-09-22T12:48:17.069Z,14.83
2022-09-22T12:49:16.568Z,14.91
2022-09-22T12:50:17.030Z,14.83
2022-09-22T12:51:16.478Z,14.78
2022-09-22T12:52:17.138Z,14.77
2022-09-22T12:53:16.584Z,14.64
2022-09-22T12:54:17.010Z,14.62
2022-09-22T12:55:16.447Z,14.64
2022-09-22T12:56:16.872Z,14.60
2022-09-22T12:57:16.304Z,14.62
2022-09-22T12:58:16.726Z,14.62
2022-09-22T12:59:17.152Z,14.57
2022-09-22T13:00:16.661Z,14.52
2022-09-22T13:01:17.320Z,14.49
2022-09-22T13:02:16.718Z,14.55
2022-09-22T13:03:16.289Z,14.53
2022-09-22T13:04:16.758Z,14.55
2022-09-22T13:05:17.256Z,14.55
2022-09-22T13:06:16.720Z,14.49
2022-09-22T13:07:17.158Z,14.47
2022-09-22T13:08:16.614Z,14.56
2022-09-22T13:09:17.032Z,14.81
2022-09-22T13:10:16.526Z,14.84
2022-09-22T13:11:17.026Z,15.14
2022-09-22T13:12:16.550Z,15.59
2022-09-22T13:13:16.975Z,15.63